createdAt,value
2017-11-28T00:00:49.334Z,3.00
2017-11-28T00:01:50.046Z,4.00
2017-11-28T00:02:50.742Z,3.00
2017-11-28T00:03:51.452Z,3.00
2017-11-28T00:04:52.151Z,3.00
2017-11-28T00:05:52.853Z,3.00
2017-11-28T00:06:53.559Z,4.00
2017-11-28T00:07:54.264Z,3.00
2017-11-28T00:08:54.967Z,2.00
2017-11-28T00:09:55.673Z,4.00
2017-11-28T00:10:56.379Z,4.00
2017-11-28T00:11:57.094Z,3.00
2017-11-28T00:12:57.797Z,3.00
2017-11-28T00:13:58.501Z,3.00
2017-11-28T00:14:59.205Z,5.00
2017-11-28T00:15:59.910Z,4.00
2017-11-28T00:17:00.614Z,4.00
2017-11-28T00:18:01.317Z,4.00
2017-11-28T00:19:02.037Z,3.00
2017-11-28T00:20:02.743Z,3.00
2017-11-28T00:21:03.463Z,5.00
2017-11-28T00:22:04.182Z,4.00
2017-11-28T00:23:04.886Z,4.00
2017-11-28T00:24:05.620Z,4.00
2017-11-28T00:25:06.324Z,4.00
2017-11-28T00:26:07.028Z,4.00
2017-11-28T00:27:07.734Z,4.00
2017-11-28T00:28:08.437Z,5.00
2017-11-28T00:29:09.157Z,5.00
2017-11-28T00:30:09.861Z,4.00
2017-11-28T00:31:10.566Z,5.00
2017-11-28T00:32:11.269Z,4.00
2017-11-28T00:33:11.987Z,4.00
2017-11-28T00:34:12.693Z,4.00
2017-11-28T00:35:13.398Z,3.00
2017-11-28T00:36:14.102Z,5.00
2017-11-28T00:37:14.820Z,2.00
2017-11-28T00:38:15.536Z,4.00
2017-11-28T00:39:16.239Z,4.00
2017-11-28T00:40:16.943Z,5.00
2017-11-28T00:41:17.664Z,4.00
2017-11-28T00:42:18.368Z,3.00
2017-11-28T00:43:19.078Z,6.00
2017-11-28T00:44:19.778Z,4.00
2017-11-28T00:45:20.496Z,4.00
2017-11-28T00:46:21.200Z,3.00
2017-11-28T00:47:21.903Z,4.00
2017-11-28T00:48:22.606Z,4.00
2017-11-28T00:49:23.316Z,5.00
2017-11-28T00:50:24.015Z,5.00
2017-11-28T00:51:24.728Z,4.00
2017-11-28T00:52:25.424Z,5.00
2017-11-28T00:53:26.129Z,6.00
2017-11-28T00:54:26.834Z,4.00
2017-11-28T00:55:27.553Z,5.00
2017-11-28T00:56:28.255Z,3.00
2017-11-28T00:57:28.961Z,5.00
2017-11-28T00:58:29.670Z,5.00
2017-11-28T00:59:30.373Z,4.00
2017-11-28T01:00:31.089Z,5.00
2017-11-28T01:01:31.793Z,6.00
2017-11-28T01:02:32.497Z,4.00
2017-11-28T01:03:33.200Z,5.00
2017-11-28T01:04:33.908Z,4.00
2017-11-28T01:05:34.609Z,5.00
2017-11-28T01:06:35.313Z,5.00
2017-11-28T01:07:36.016Z,4.00
2017-11-28T01:08:36.729Z,7.00
2017-11-28T01:09:37.426Z,3.00
2017-11-28T01:10:38.134Z,4.00
2017-11-28T01:11:38.851Z,6.00
2017-11-28T01:12:39.537Z,5.00
2017-11-28T01:13:40.263Z,6.00
2017-11-28T01:14:40.963Z,6.00
2017-11-28T01:15:41.675Z,6.00
2017-11-28T01:16:42.376Z,6.00
2017-11-28T01:17:43.082Z,5.00
2017-11-28T01:19:44.400Z,5.00
2017-11-28T01:20:45.105Z,6.00
2017-11-28T01:21:45.812Z,5.00
2017-11-28T01:22:46.516Z,3.00
2017-11-28T01:23:47.233Z,4.00
2017-11-28T01:24:47.940Z,5.00
2017-11-28T01:25:48.657Z,5.00
2017-11-28T01:26:49.376Z,4.00
2017-11-28T01:27:50.096Z,6.00
2017-11-28T01:28:50.815Z,4.00
2017-11-28T01:29:51.531Z,5.00
2017-11-28T01:30:52.228Z,5.00
2017-11-28T01:31:52.945Z,7.00
2017-11-28T01:32:53.664Z,5.00
2017-11-28T01:33:54.368Z,7.00
2017-11-28T01:34:55.071Z,3.00
2017-11-28T01:35:55.776Z,4.00
2017-11-28T01:36:56.481Z,4.00
2017-11-28T01:37:57.185Z,7.00
2017-11-28T01:38:57.888Z,4.00
2017-11-28T01:39:58.598Z,5.00
2017-11-28T01:40:59.310Z,4.00
2017-11-28T01:42:00.013Z,4.00
2017-11-28T01:43:00.717Z,6.00
2017-11-28T01:44:01.420Z,5.00
2017-11-28T01:45:02.122Z,7.00
2017-11-28T01:46:02.827Z,6.00
2017-11-28T01:47:03.532Z,6.00
2017-11-28T01:48:04.236Z,5.00
2017-11-28T01:49:04.957Z,4.00
2017-11-28T01:50:05.675Z,6.00
2017-11-28T01:51:06.378Z,6.00
2017-11-28T01:52:07.083Z,8.00
2017-11-28T01:53:07.786Z,7.00
2017-11-28T01:54:08.490Z,6.00
2017-11-28T01:55:09.210Z,6.00
2017-11-28T01:56:09.914Z,6.00
2017-11-28T01:57:10.624Z,6.00
2017-11-28T01:58:11.340Z,6.00
2017-11-28T01:59:12.043Z,6.00
2017-11-28T02:00:12.768Z,4.00
2017-11-28T02:01:13.483Z,6.00
2017-11-28T02:02:14.186Z,6.00
2017-11-28T02:03:14.905Z,6.00
2017-11-28T02:04:15.612Z,6.00
2017-11-28T02:05:16.318Z,6.00
2017-11-28T02:06:17.022Z,7.00
2017-11-28T02:07:17.727Z,7.00
2017-11-28T02:08:18.433Z,9.00
2017-11-28T02:09:19.137Z,6.00
2017-11-28T02:10:19.841Z,8.00
2017-11-28T02:11:20.547Z,7.00
2017-11-28T02:12:21.250Z,7.00
2017-11-28T02:13:21.954Z,6.00
2017-11-28T02:14:22.676Z,6.00
2017-11-28T02:15:23.377Z,6.00
2017-11-28T02:16:24.082Z,7.00
2017-11-28T02:17:24.784Z,7.00
2017-11-28T02:18:25.490Z,8.00
2017-11-28T02:19:26.194Z,6.00
2017-11-28T02:20:26.912Z,7.00
2017-11-28T02:21:27.633Z,9.00
2017-11-28T02:22:28.337Z,8.00
2017-11-28T02:23:29.041Z,7.00
2017-11-28T02:24:29.753Z,7.00
2017-11-28T02:25:30.454Z,5.00
2017-11-28T02:26:31.157Z,7.00
2017-11-28T02:27:31.860Z,5.00
2017-11-28T02:28:32.566Z,4.00
2017-11-28T02:29:33.268Z,7.00
2017-11-28T02:30:33.988Z,7.00
2017-11-28T02:31:34.696Z,7.00
2017-11-28T02:32:35.411Z,9.00
2017-11-28T02:33:36.113Z,6.00
2017-11-28T02:34:36.817Z,5.00
2017-11-28T02:35:37.523Z,6.00
2017-11-28T02:36:38.227Z,7.00
2017-11-28T02:37:38.937Z,8.00
2017-11-28T02:38:39.653Z,6.00
2017-11-28T02:39:40.372Z,6.00
2017-11-28T02:40:41.076Z,7.00
2017-11-28T02:41:41.780Z,5.00
2017-11-28T02:42:42.486Z,6.00
2017-11-28T02:43:43.204Z,7.00
2017-11-28T02:44:43.910Z,6.00
2017-11-28T02:45:44.614Z,6.00
2017-11-28T02:46:45.323Z,6.00
2017-11-28T02:47:46.023Z,6.00
2017-11-28T02:48:46.730Z,6.00
2017-11-28T02:49:47.437Z,6.00
2017-11-28T02:50:48.145Z,5.00
2017-11-28T02:51:48.851Z,5.00
2017-11-28T02:52:49.554Z,5.00
2017-11-28T02:53:50.273Z,6.00
2017-11-28T02:54:50.986Z,7.00
2017-11-28T02:55:51.683Z,5.00
2017-11-28T02:56:52.389Z,6.00
2017-11-28T02:57:53.095Z,6.00
2017-11-28T02:58:53.797Z,4.00
2017-11-28T02:59:54.507Z,6.00
2017-11-28T03:00:55.222Z,6.00
2017-11-28T03:01:55.924Z,6.00
2017-11-28T03:02:56.630Z,5.00
2017-11-28T03:03:57.330Z,3.00
2017-11-28T03:04:58.035Z,4.00
2017-11-28T03:05:58.746Z,5.00
2017-11-28T03:06:59.459Z,4.00
2017-11-28T03:08:00.165Z,7.00
2017-11-28T03:09:00.869Z,5.00
2017-11-28T03:10:01.574Z,5.00
2017-11-28T03:11:02.297Z,6.00
2017-11-28T03:12:03.014Z,5.00
2017-11-28T03:13:03.728Z,5.00
2017-11-28T03:14:04.434Z,3.00
2017-11-28T03:15:05.139Z,5.00
2017-11-28T03:16:05.844Z,5.00
2017-11-28T03:17:06.549Z,5.00
2017-11-28T03:18:07.253Z,4.00
2017-11-28T03:19:07.957Z,5.00
2017-11-28T03:20:08.661Z,6.00
2017-11-28T03:21:09.381Z,6.00
2017-11-28T03:22:10.086Z,6.00
2017-11-28T03:23:10.804Z,7.00
2017-11-28T03:24:11.507Z,5.00
2017-11-28T03:25:12.209Z,5.00
2017-11-28T03:26:12.921Z,4.00
2017-11-28T03:27:13.616Z,7.00
2017-11-28T03:28:14.329Z,7.00
2017-11-28T03:29:15.025Z,9.00
2017-11-28T03:30:15.732Z,9.00
2017-11-28T03:31:16.436Z,7.00
2017-11-28T03:32:17.141Z,8.00
2017-11-28T03:33:17.859Z,8.00
2017-11-28T03:34:18.571Z,9.00
2017-11-28T03:35:19.286Z,6.00
2017-11-28T03:36:20.006Z,5.00
2017-11-28T03:37:20.708Z,4.00
2017-11-28T03:38:21.415Z,6.00
2017-11-28T03:39:22.120Z,8.00
2017-11-28T03:40:22.829Z,9.00
2017-11-28T03:41:23.544Z,8.00
2017-11-28T03:42:24.262Z,5.00
2017-11-28T03:43:24.966Z,7.00
2017-11-28T03:44:25.671Z,9.00
2017-11-28T03:45:26.376Z,8.00
2017-11-28T03:46:27.082Z,9.00
2017-11-28T03:47:27.800Z,7.00
2017-11-28T03:48:28.505Z,8.00
2017-11-28T03:49:29.224Z,9.00
2017-11-28T03:50:29.944Z,10.00
2017-11-28T03:51:30.649Z,7.00
2017-11-28T03:52:31.371Z,10.00
2017-11-28T03:53:32.078Z,11.00
2017-11-28T03:54:32.787Z,8.00
2017-11-28T03:55:33.503Z,7.00
2017-11-28T03:56:34.210Z,11.00
2017-11-28T03:57:34.915Z,9.00
2017-11-28T03:58:35.627Z,11.00
2017-11-28T03:59:36.329Z,9.00
2017-11-28T04:00:37.035Z,10.00
2017-11-28T04:01:37.757Z,10.00
2017-11-28T04:02:38.465Z,8.00
2017-11-28T04:03:39.183Z,10.00
2017-11-28T04:04:39.889Z,10.00
2017-11-28T04:05:40.597Z,11.00
2017-11-28T04:06:41.301Z,7.00
2017-11-28T04:07:42.028Z,11.00
2017-11-28T04:08:42.729Z,9.00
2017-11-28T04:09:43.434Z,6.00
2017-11-28T04:10:44.144Z,13.00
2017-11-28T04:11:44.863Z,8.00
2017-11-28T04:12:45.568Z,8.00
2017-11-28T04:13:46.274Z,10.00
2017-11-28T04:14:46.981Z,8.00
2017-11-28T04:15:47.698Z,13.00
2017-11-28T04:16:48.406Z,10.00
2017-11-28T04:17:49.112Z,10.00
2017-11-28T04:18:49.821Z,10.00
2017-11-28T04:19:50.524Z,9.00
2017-11-28T04:20:51.233Z,11.00
2017-11-28T04:21:51.936Z,6.00
2017-11-28T04:22:52.642Z,11.00
2017-11-28T04:23:53.348Z,7.00
2017-11-28T04:24:54.052Z,10.00
2017-11-28T04:25:54.770Z,9.00
2017-11-28T04:26:55.476Z,12.00
2017-11-28T04:27:56.188Z,10.00
2017-11-28T04:28:56.890Z,11.00
2017-11-28T04:29:57.611Z,11.00
2017-11-28T04:30:58.316Z,8.00
2017-11-28T04:31:59.035Z,10.00
2017-11-28T04:32:59.742Z,11.00
2017-11-28T04:34:00.448Z,10.00
2017-11-28T04:35:01.160Z,10.00
2017-11-28T04:36:01.859Z,11.00
2017-11-28T04:37:02.563Z,6.00
2017-11-28T04:38:03.270Z,10.00
2017-11-28T04:39:03.974Z,9.00
2017-11-28T04:40:04.679Z,11.00
2017-11-28T04:41:05.383Z,8.00
2017-11-28T04:42:06.087Z,9.00
2017-11-28T04:43:06.791Z,9.00
2017-11-28T04:44:07.497Z,10.00
2017-11-28T04:45:08.203Z,10.00
2017-11-28T04:46:08.925Z,11.00
2017-11-28T04:47:09.630Z,9.00
2017-11-28T04:48:10.334Z,8.00
2017-11-28T04:49:11.053Z,7.00
2017-11-28T04:50:11.758Z,10.00
2017-11-28T04:51:12.477Z,10.00
2017-11-28T04:52:13.181Z,9.00
2017-11-28T04:53:13.885Z,6.00
2017-11-28T04:54:14.590Z,10.00
2017-11-28T04:55:15.302Z,11.00
2017-11-28T04:56:16.002Z,12.00
2017-11-28T04:57:16.707Z,8.00
2017-11-28T04:58:17.465Z,10.00
2017-11-28T04:59:18.184Z,7.00
2017-11-28T05:00:18.890Z,9.00
2017-11-28T05:01:19.594Z,12.00
2017-11-28T05:02:20.302Z,10.00
2017-11-28T05:03:21.008Z,14.00
2017-11-28T05:04:21.712Z,9.00
2017-11-28T05:05:22.438Z,10.00
2017-11-28T05:06:23.124Z,14.00
2017-11-28T05:07:23.829Z,12.00
2017-11-28T05:08:24.533Z,12.00
2017-11-28T05:09:25.246Z,11.00
2017-11-28T05:10:25.944Z,11.00
2017-11-28T05:11:26.651Z,11.00
2017-11-28T05:12:27.357Z,12.00
2017-11-28T05:13:28.061Z,10.00
2017-11-28T05:14:28.770Z,13.00
2017-11-28T05:15:29.481Z,8.00
2017-11-28T05:16:30.184Z,12.00
2017-11-28T05:17:30.891Z,11.00
2017-11-28T05:18:31.603Z,12.00
2017-11-28T05:19:32.302Z,12.00
2017-11-28T05:20:33.007Z,12.00
2017-11-28T05:21:33.713Z,14.00
2017-11-28T05:22:34.420Z,12.00
2017-11-28T05:23:35.123Z,14.00
2017-11-28T05:24:35.828Z,14.00
2017-11-28T05:25:36.533Z,13.00
2017-11-28T05:26:37.252Z,15.00
2017-11-28T05:27:37.957Z,10.00
2017-11-28T05:28:38.677Z,8.00
2017-11-28T05:29:39.384Z,11.00
2017-11-28T05:30:40.105Z,6.00
2017-11-28T05:31:40.820Z,7.00
2017-11-28T05:32:41.524Z,14.00
2017-11-28T05:33:42.246Z,12.00
2017-11-28T05:34:42.950Z,7.00
2017-11-28T05:35:43.654Z,6.00
2017-11-28T05:36:44.367Z,14.00
2017-11-28T05:37:45.063Z,8.00
2017-11-28T05:38:45.782Z,13.00
2017-11-28T05:39:46.505Z,16.00
2017-11-28T05:40:47.213Z,16.00
2017-11-28T05:41:47.919Z,16.00
2017-11-28T05:42:48.625Z,11.00
2017-11-28T05:43:49.329Z,16.00
2017-11-28T05:44:50.049Z,13.00
2017-11-28T05:45:50.756Z,17.00
2017-11-28T05:46:51.461Z,9.00
2017-11-28T05:47:52.165Z,15.00
2017-11-28T05:48:52.872Z,14.00
2017-11-28T05:49:53.593Z,16.00
2017-11-28T05:50:54.299Z,16.00
2017-11-28T05:51:55.005Z,14.00
2017-11-28T05:52:55.711Z,16.00
2017-11-28T05:53:56.414Z,13.00
2017-11-28T05:54:57.134Z,13.00
2017-11-28T05:55:57.840Z,16.00
2017-11-28T05:56:58.547Z,15.00
2017-11-28T05:57:59.253Z,14.00
2017-11-28T05:58:59.957Z,15.00
2017-11-28T06:00:00.659Z,9.00
2017-11-28T06:01:01.382Z,12.00
2017-11-28T06:02:02.087Z,12.00
2017-11-28T06:03:02.794Z,15.00
2017-11-28T06:04:03.500Z,13.00
2017-11-28T06:05:04.205Z,13.00
2017-11-28T06:06:04.909Z,11.00
2017-11-28T06:07:05.615Z,17.00
2017-11-28T06:08:06.318Z,7.00
2017-11-28T06:09:07.038Z,11.00
2017-11-28T06:10:07.742Z,13.00
2017-11-28T06:11:08.448Z,14.00
2017-11-28T06:12:09.153Z,13.00
2017-11-28T06:13:09.857Z,11.00
2017-11-28T06:14:10.583Z,10.00
2017-11-28T06:15:11.288Z,12.00
2017-11-28T06:16:12.006Z,16.00
2017-11-28T06:17:12.716Z,13.00
2017-11-28T06:18:13.430Z,18.00
2017-11-28T06:19:14.138Z,13.00
2017-11-28T06:20:14.859Z,12.00
2017-11-28T06:21:15.564Z,12.00
2017-11-28T06:22:16.269Z,12.00
2017-11-28T06:23:16.974Z,17.00
2017-11-28T06:24:17.681Z,15.00
2017-11-28T06:25:18.385Z,12.00
2017-11-28T06:26:19.090Z,9.00
2017-11-28T06:27:19.796Z,13.00
2017-11-28T06:28:20.502Z,11.00
2017-11-28T06:29:21.207Z,12.00
2017-11-28T06:30:21.930Z,13.00
2017-11-28T06:31:22.652Z,11.00
2017-11-28T06:32:23.357Z,6.00
2017-11-28T06:33:24.068Z,13.00
2017-11-28T06:34:24.769Z,13.00
2017-11-28T06:35:25.490Z,12.00
2017-11-28T06:36:26.195Z,13.00
2017-11-28T06:37:26.902Z,8.00
2017-11-28T06:38:27.608Z,9.00
2017-11-28T06:39:28.314Z,11.00
2017-11-28T06:40:29.021Z,10.00
2017-11-28T06:41:29.730Z,12.00
2017-11-28T06:42:30.430Z,12.00
2017-11-28T06:43:31.147Z,9.00
2017-11-28T06:44:31.867Z,12.00
2017-11-28T06:45:32.575Z,12.00
2017-11-28T06:46:33.287Z,9.00
2017-11-28T06:47:33.987Z,8.00
2017-11-28T06:48:34.710Z,11.00
2017-11-28T06:49:35.417Z,11.00
2017-11-28T06:50:36.128Z,8.00
2017-11-28T06:51:36.830Z,10.00
2017-11-28T06:52:37.536Z,12.00
2017-11-28T06:53:38.241Z,11.00
2017-11-28T06:54:38.951Z,12.00
2017-11-28T06:55:39.654Z,10.00
2017-11-28T06:56:40.362Z,12.00
2017-11-28T06:57:41.070Z,10.00
2017-11-28T06:58:41.779Z,13.00
2017-11-28T06:59:42.500Z,10.00
2017-11-28T07:00:43.220Z,9.00
2017-11-28T07:01:43.942Z,11.00
2017-11-28T07:02:44.661Z,12.00
2017-11-28T07:03:45.364Z,9.00
2017-11-28T07:04:46.088Z,13.00
2017-11-28T07:05:46.794Z,8.00
2017-11-28T07:06:47.515Z,10.00
2017-11-28T07:07:48.225Z,12.00
2017-11-28T07:08:48.932Z,11.00
2017-11-28T07:09:49.639Z,9.00
2017-11-28T07:10:50.347Z,10.00
2017-11-28T07:11:51.071Z,11.00
2017-11-28T07:12:51.776Z,11.00
2017-11-28T07:13:52.482Z,13.00
2017-11-28T07:14:53.190Z,12.00
2017-11-28T07:15:53.901Z,10.00
2017-11-28T07:16:54.609Z,13.00
2017-11-28T07:17:55.316Z,9.00
2017-11-28T07:18:56.025Z,9.00
2017-11-28T07:19:56.742Z,11.00
2017-11-28T07:20:57.444Z,8.00
2017-11-28T07:21:58.168Z,10.00
2017-11-28T07:22:58.876Z,10.00
2017-11-28T07:23:59.585Z,10.00
2017-11-28T07:25:00.308Z,10.00
2017-11-28T07:26:01.015Z,9.00
2017-11-28T07:27:01.721Z,7.00
2017-11-28T07:28:02.430Z,10.00
2017-11-28T07:29:03.138Z,9.00
2017-11-28T07:30:03.847Z,10.00
2017-11-28T07:31:04.556Z,12.00
2017-11-28T07:32:05.266Z,14.00
2017-11-28T07:33:05.990Z,9.00
2017-11-28T07:34:06.710Z,11.00
2017-11-28T07:35:07.423Z,9.00
2017-11-28T07:36:08.140Z,7.00
2017-11-28T07:37:08.863Z,9.00
2017-11-28T07:38:09.573Z,8.00
2017-11-28T07:39:10.284Z,11.00
2017-11-28T07:40:10.995Z,8.00
2017-11-28T07:41:11.702Z,6.00
2017-11-28T07:42:12.423Z,9.00
2017-11-28T07:43:13.148Z,10.00
2017-11-28T07:44:13.864Z,7.00
2017-11-28T07:45:14.566Z,8.00
2017-11-28T07:46:15.273Z,8.00
2017-11-28T07:47:15.984Z,8.00
2017-11-28T07:48:16.696Z,10.00
2017-11-28T07:49:17.408Z,11.00
2017-11-28T07:50:18.122Z,7.00
2017-11-28T07:51:18.831Z,9.00
2017-11-28T07:52:19.541Z,9.00
2017-11-28T07:53:20.249Z,9.00
2017-11-28T07:54:20.958Z,7.00
2017-11-28T07:55:21.687Z,10.00
2017-11-28T07:56:22.408Z,8.00
2017-11-28T07:57:23.116Z,7.00
2017-11-28T07:58:23.825Z,7.00
2017-11-28T07:59:24.548Z,8.00
2017-11-28T08:00:25.259Z,9.00
2017-11-28T08:01:25.968Z,7.00
2017-11-28T08:02:26.676Z,8.00
2017-11-28T08:03:27.385Z,9.00
2017-11-28T08:04:28.092Z,8.00
2017-11-28T08:05:28.800Z,9.00
2017-11-28T08:06:29.508Z,8.00
2017-11-28T08:07:30.231Z,9.00
2017-11-28T08:08:30.943Z,12.00
2017-11-28T08:09:31.667Z,7.00
2017-11-28T08:10:32.378Z,6.00
2017-11-28T08:11:33.103Z,9.00
2017-11-28T08:12:33.811Z,8.00
2017-11-28T08:13:34.519Z,9.00
2017-11-28T08:14:35.235Z,9.00
2017-11-28T08:15:35.952Z,9.00
2017-11-28T08:16:36.666Z,10.00
2017-11-28T08:17:37.376Z,9.00
2017-11-28T08:18:38.091Z,8.00
2017-11-28T08:19:38.807Z,7.00
2017-11-28T08:20:39.516Z,8.00
2017-11-28T08:21:40.226Z,9.00
2017-11-28T08:22:40.938Z,8.00
2017-11-28T08:23:41.662Z,10.00
2017-11-28T08:24:42.387Z,9.00
2017-11-28T08:25:43.100Z,10.00
2017-11-28T08:26:43.811Z,8.00
2017-11-28T08:27:44.522Z,8.00
2017-11-28T08:28:45.234Z,10.00
2017-11-28T08:29:45.946Z,11.00
2017-11-28T08:30:46.673Z,9.00
2017-11-28T08:31:47.385Z,9.00
2017-11-28T08:32:48.099Z,14.00
2017-11-28T08:33:48.817Z,10.00
2017-11-28T08:34:49.527Z,10.00
2017-11-28T08:35:50.242Z,7.00
2017-11-28T08:36:50.949Z,7.00
2017-11-28T08:37:51.660Z,9.00
2017-11-28T08:38:52.385Z,9.00
2017-11-28T08:39:53.112Z,10.00
2017-11-28T08:40:53.821Z,9.00
2017-11-28T08:41:54.533Z,9.00
2017-11-28T08:42:55.260Z,11.00
2017-11-28T08:43:55.978Z,8.00
2017-11-28T08:44:56.696Z,5.00
2017-11-28T08:45:57.406Z,8.00
2017-11-28T08:46:58.133Z,7.00
2017-11-28T08:47:58.847Z,10.00
2017-11-28T08:48:59.565Z,9.00
2017-11-28T08:50:00.294Z,8.00
2017-11-28T08:51:01.005Z,7.00
2017-11-28T08:52:01.715Z,9.00
2017-11-28T08:53:02.447Z,7.00
2017-11-28T08:54:03.169Z,8.00
2017-11-28T08:55:03.879Z,7.00
2017-11-28T08:56:04.606Z,7.00
2017-11-28T08:57:05.320Z,10.00
2017-11-28T08:58:06.031Z,6.00
2017-11-28T08:59:06.748Z,10.00
2017-11-28T09:00:07.473Z,12.00
2017-11-28T09:01:08.198Z,7.00
2017-11-28T09:02:08.911Z,7.00
2017-11-28T09:03:09.634Z,9.00
2017-11-28T09:04:10.345Z,7.00
2017-11-28T09:05:11.056Z,7.00
2017-11-28T09:06:11.780Z,8.00
2017-11-28T09:07:12.492Z,9.00
2017-11-28T09:08:13.217Z,5.00
2017-11-28T09:09:13.930Z,8.00
2017-11-28T09:10:14.640Z,8.00
2017-11-28T09:11:15.349Z,7.00
2017-11-28T09:12:16.077Z,9.00
2017-11-28T09:13:16.772Z,5.00
2017-11-28T09:14:17.485Z,4.00
2017-11-28T09:15:18.189Z,6.00
2017-11-28T09:16:18.899Z,9.00
2017-11-28T09:17:19.609Z,8.00
2017-11-28T09:18:20.323Z,6.00
2017-11-28T09:19:21.029Z,5.00
2017-11-28T09:20:21.741Z,7.00
2017-11-28T09:21:22.466Z,7.00
2017-11-28T09:22:23.194Z,5.00
2017-11-28T09:23:23.905Z,9.00
2017-11-28T09:24:24.622Z,9.00
2017-11-28T09:25:25.331Z,8.00
2017-11-28T09:26:26.046Z,8.00
2017-11-28T09:27:26.756Z,7.00
2017-11-28T09:28:27.470Z,10.00
2017-11-28T09:29:28.188Z,5.00
2017-11-28T09:30:28.901Z,7.00
2017-11-28T09:31:29.614Z,8.00
2017-11-28T09:32:30.335Z,7.00
2017-11-28T09:33:31.048Z,11.00
2017-11-28T09:34:31.767Z,10.00
2017-11-28T09:35:32.477Z,9.00
2017-11-28T09:36:33.189Z,7.00
2017-11-28T09:37:33.916Z,9.00
2017-11-28T09:38:34.630Z,7.00
2017-11-28T09:39:35.346Z,6.00
2017-11-28T09:40:36.065Z,10.00
2017-11-28T09:41:36.771Z,8.00
2017-11-28T09:42:37.496Z,4.00
2017-11-28T09:43:38.209Z,8.00
2017-11-28T09:44:38.925Z,8.00
2017-11-28T09:45:39.644Z,11.00
2017-11-28T09:46:40.370Z,9.00
2017-11-28T09:47:41.110Z,9.00
2017-11-28T09:48:41.840Z,8.00
2017-11-28T09:49:42.571Z,7.00
2017-11-28T09:50:43.288Z,7.00
2017-11-28T09:51:44.037Z,9.00
2017-11-28T09:52:44.784Z,8.00
2017-11-28T09:53:45.532Z,8.00
2017-11-28T09:54:46.245Z,9.00
2017-11-28T09:55:46.983Z,7.00
2017-11-28T09:56:47.702Z,9.00
2017-11-28T09:57:48.415Z,8.00
2017-11-28T09:58:49.131Z,9.00
2017-11-28T09:59:49.846Z,5.00
2017-11-28T10:00:50.562Z,7.00
2017-11-28T10:01:51.276Z,8.00
2017-11-28T10:02:51.998Z,8.00
2017-11-28T10:03:52.728Z,8.00
2017-11-28T10:04:53.443Z,8.00
2017-11-28T10:05:54.175Z,10.00
2017-11-28T10:06:54.890Z,8.00
2017-11-28T10:07:55.607Z,8.00
2017-11-28T10:08:56.322Z,8.00
2017-11-28T10:09:57.056Z,10.00
2017-11-28T10:10:57.785Z,8.00
2017-11-28T10:11:58.517Z,8.00
2017-11-28T10:12:59.234Z,6.00
2017-11-28T10:13:59.951Z,5.00
2017-11-28T10:15:00.668Z,7.00
2017-11-28T10:16:01.385Z,7.00
2017-11-28T10:17:02.115Z,8.00
2017-11-28T10:18:02.848Z,8.00
2017-11-28T10:19:03.565Z,7.00
2017-11-28T10:20:04.285Z,7.00
2017-11-28T10:21:05.003Z,7.00
2017-11-28T10:22:05.733Z,7.00
2017-11-28T10:23:06.450Z,7.00
2017-11-28T10:24:07.178Z,6.00
2017-11-28T10:25:07.894Z,5.00
2017-11-28T10:26:08.609Z,6.00
2017-11-28T10:27:09.335Z,8.00
2017-11-28T10:28:10.056Z,6.00
2017-11-28T10:29:10.781Z,9.00
2017-11-28T10:30:11.511Z,8.00
2017-11-28T10:31:12.247Z,7.00
2017-11-28T10:32:12.965Z,7.00
2017-11-28T10:33:13.683Z,7.00
2017-11-28T10:34:14.400Z,9.00
2017-11-28T10:35:15.138Z,8.00
2017-11-28T10:36:15.864Z,7.00
2017-11-28T10:37:16.582Z,7.00
2017-11-28T10:38:17.317Z,7.00
2017-11-28T10:39:18.036Z,8.00
2017-11-28T10:40:18.789Z,7.00
2017-11-28T10:41:19.502Z,6.00
2017-11-28T10:42:20.222Z,4.00
2017-11-28T10:43:21.003Z,5.00
2017-11-28T10:44:21.713Z,7.00
2017-11-28T10:45:22.436Z,7.00
2017-11-28T10:46:23.153Z,7.00
2017-11-28T10:47:23.873Z,7.00
2017-11-28T10:48:24.590Z,7.00
2017-11-28T10:49:25.310Z,7.00
2017-11-28T10:50:26.031Z,5.00
2017-11-28T10:51:26.765Z,5.00
2017-11-28T10:52:27.501Z,6.00
2017-11-28T10:53:28.218Z,3.00
2017-11-28T10:54:28.939Z,7.00
2017-11-28T10:55:29.658Z,5.00
2017-11-28T10:56:30.377Z,7.00
2017-11-28T10:57:31.095Z,5.00
2017-11-28T10:58:31.814Z,7.00
2017-11-28T10:59:32.536Z,7.00
2017-11-28T11:00:33.252Z,4.00
2017-11-28T11:01:33.977Z,8.00
2017-11-28T11:02:34.691Z,6.00
2017-11-28T11:03:35.412Z,7.00
2017-11-28T11:04:36.133Z,7.00
2017-11-28T11:05:36.857Z,7.00
2017-11-28T11:06:37.577Z,5.00
2017-11-28T11:07:38.298Z,7.00
2017-11-28T11:08:39.020Z,6.00
2017-11-28T11:09:39.735Z,7.00
2017-11-28T11:10:40.452Z,6.00
2017-11-28T11:11:41.198Z,5.00
2017-11-28T11:12:41.915Z,6.00
2017-11-28T11:13:42.634Z,6.00
2017-11-28T11:14:43.349Z,5.00
2017-11-28T11:15:44.068Z,8.00
2017-11-28T11:16:44.784Z,6.00
2017-11-28T11:17:45.502Z,7.00
2017-11-28T11:18:46.221Z,6.00
2017-11-28T11:19:46.940Z,8.00
2017-11-28T11:20:47.656Z,4.00
2017-11-28T11:21:48.371Z,6.00
2017-11-28T11:22:49.092Z,7.00
2017-11-28T11:23:49.825Z,7.00
2017-11-28T11:24:50.542Z,7.00
2017-11-28T11:25:51.258Z,4.00
2017-11-28T11:26:51.975Z,5.00
2017-11-28T11:27:52.701Z,5.00
2017-11-28T11:28:53.427Z,4.00
2017-11-28T11:29:54.155Z,5.00
2017-11-28T11:30:54.867Z,7.00
2017-11-28T11:31:55.598Z,5.00
2017-11-28T11:32:56.319Z,9.00
2017-11-28T11:33:57.050Z,6.00
2017-11-28T11:34:57.767Z,6.00
2017-11-28T11:35:58.488Z,8.00
2017-11-28T11:36:59.206Z,5.00
2017-11-28T11:37:59.922Z,5.00
2017-11-28T11:39:00.644Z,7.00
2017-11-28T11:40:01.369Z,4.00
2017-11-28T11:41:02.077Z,8.00
2017-11-28T11:42:02.792Z,6.00
2017-11-28T11:43:03.522Z,5.00
2017-11-28T11:44:04.241Z,5.00
2017-11-28T11:45:04.963Z,6.00
2017-11-28T11:46:05.671Z,5.00
2017-11-28T11:47:06.385Z,7.00
2017-11-28T11:48:07.104Z,7.00
2017-11-28T11:49:07.820Z,7.00
2017-11-28T11:50:08.552Z,7.00
2017-11-28T11:51:09.265Z,5.00
2017-11-28T11:52:09.994Z,6.00
2017-11-28T11:53:10.714Z,7.00
2017-11-28T11:54:11.428Z,8.00
2017-11-28T11:55:12.143Z,7.00
2017-11-28T11:56:12.853Z,9.00
2017-11-28T11:57:13.578Z,6.00
2017-11-28T11:58:14.290Z,7.00
2017-11-28T11:59:15.016Z,8.00
2017-11-28T12:00:15.717Z,7.00
2017-11-28T12:01:16.431Z,8.00
2017-11-28T12:02:17.162Z,7.00
2017-11-28T12:03:17.856Z,8.00
2017-11-28T12:04:18.569Z,8.00
2017-11-28T12:05:19.285Z,5.00
2017-11-28T12:06:19.998Z,7.00
2017-11-28T12:07:20.708Z,7.00
2017-11-28T12:08:21.422Z,4.00
2017-11-28T12:09:22.150Z,5.00
2017-11-28T12:10:22.862Z,7.00
2017-11-28T12:11:23.576Z,8.00
2017-11-28T12:12:24.295Z,7.00
2017-11-28T12:13:25.020Z,7.00
2017-11-28T12:14:25.733Z,7.00
2017-11-28T12:15:26.460Z,9.00
2017-11-28T12:16:27.175Z,5.00
2017-11-28T12:17:27.904Z,7.00
2017-11-28T12:18:28.615Z,6.00
2017-11-28T12:19:29.376Z,5.00
2017-11-28T12:20:30.055Z,7.00
2017-11-28T12:21:30.781Z,7.00
2017-11-28T12:22:31.480Z,8.00
2017-11-28T12:23:32.212Z,12.00
2017-11-28T12:24:32.926Z,8.00
2017-11-28T12:25:33.651Z,9.00
2017-11-28T12:26:34.363Z,6.00
2017-11-28T12:27:35.092Z,4.00
2017-11-28T12:28:35.805Z,5.00
2017-11-28T12:29:36.519Z,7.00
2017-11-28T12:30:37.233Z,9.00
2017-11-28T12:31:37.945Z,7.00
2017-11-28T12:32:38.659Z,8.00
2017-11-28T12:33:39.374Z,10.00
2017-11-28T12:34:40.105Z,8.00
2017-11-28T12:35:40.820Z,10.00
2017-11-28T12:36:41.532Z,8.00
2017-11-28T12:37:42.247Z,10.00
2017-11-28T12:38:42.962Z,7.00
2017-11-28T12:39:43.700Z,8.00
2017-11-28T12:40:44.413Z,6.00
2017-11-28T12:41:45.131Z,8.00
2017-11-28T12:42:45.845Z,5.00
2017-11-28T12:43:46.559Z,7.00
2017-11-28T12:44:47.274Z,9.00
2017-11-28T12:45:47.992Z,6.00
2017-11-28T12:46:48.711Z,8.00
2017-11-28T12:47:49.436Z,6.00
2017-11-28T12:48:50.166Z,7.00
2017-11-28T12:49:50.883Z,7.00
2017-11-28T12:50:51.617Z,7.00
2017-11-28T12:51:52.332Z,9.00
2017-11-28T12:52:53.051Z,10.00
2017-11-28T12:53:53.768Z,7.00
2017-11-28T12:54:54.487Z,8.00
2017-11-28T12:55:55.220Z,8.00
2017-11-28T12:56:55.936Z,7.00
2017-11-28T12:57:56.653Z,8.00
2017-11-28T12:58:57.384Z,6.00
2017-11-28T12:59:58.109Z,5.00
2017-11-28T13:00:58.817Z,6.00
2017-11-28T13:01:59.534Z,6.00
2017-11-28T13:03:00.258Z,7.00
2017-11-28T13:04:00.966Z,8.00
2017-11-28T13:05:01.692Z,7.00
2017-11-28T13:06:02.405Z,8.00
2017-11-28T13:07:03.121Z,7.00
2017-11-28T13:08:03.835Z,7.00
2017-11-28T13:09:04.552Z,8.00
2017-11-28T13:10:05.276Z,7.00
2017-11-28T13:11:05.979Z,3.00
2017-11-28T13:12:06.709Z,6.00
2017-11-28T13:13:07.430Z,7.00
2017-11-28T13:14:08.146Z,6.00
2017-11-28T13:15:08.860Z,7.00
2017-11-28T13:16:09.578Z,8.00
2017-11-28T13:17:10.293Z,7.00
2017-11-28T13:18:11.009Z,7.00
2017-11-28T13:19:11.725Z,8.00
2017-11-28T13:20:12.471Z,8.00
2017-11-28T13:21:13.187Z,8.00
2017-11-28T13:22:13.901Z,6.00
2017-11-28T13:23:14.617Z,7.00